Waren, Germany

3:31 PM CEST on July 28, 2014 (GMT +0200)
Mecklenburg-Vorpommern (IMECKLEN38) Elev 121 ft | 53.58 °N, 12.79 °E | Change Station

Current weather conditions updated 2 minutes ago

Mostly Cloudy
Mostly Cloudy
73.8 °F
Feels Like 74 °F
N
0.0
Wind Variable Wind from WNW
Gusts 3.0 mph

Today is forecast to be Much Cooler than yesterday. Thunderstorms developing in the afternoon.

Today
High -- | Low -- °F
--% Chance of Precip.
Yesterday
High -- | Low -- °F
Precip. -- in
5:17 AM 9:12 PM
New Moon, 2% visible
Pressure 29.92 in
Visibility 6.2 miles
Clouds Few 3500 ft
Mostly Cloudy 19000 ft
Heat Index 74 °F
Dew Point 68 °F
Humidity 81%
Rainfall 0.27 in
Snow Depth Not available.
UV 4 out of 12
Pollen Not available.
Air Quality Not available.
Flu Activity Not available.
METAR ETNL 281320Z 02005KT 9999 FEW035 BKN190 26/18 Q1013 BLU BLU

More Conditions Fewer Conditions

Pressure 29.92 in
Visibility 6.2 miles
Clouds Few 3500 ft
Mostly Cloudy 19000 ft
Heat Index 74 °F
Dew Point 68 °F
Humidity 81%
Rainfall 0.27 in
Snow Depth Not available.
UV 4 out of 12
Pollen Not available.
Air Quality Not available.
Flu Activity Not available.
METAR ETNL 281320Z 02005KT 9999 FEW035 BKN190 26/18 Q1013 BLU BLU

More Conditions Fewer Conditions

10-Day Weather Forecast

Almanac

Astronomy

Jul. 28, 2014 Rise Set
Actual Time 5:17 AM CEST 9:12 PM CEST
Civil Twilight 4:33 AM CEST 9:57 PM CEST
Nautical Twilight 3:28 AM CEST 11:00 PM CEST
Astronomical Twilight 1:48 AM CEST 12:43 AM CEST
Moon 7:05 AM CEST 9:19 PM CEST
Length of Visible Light 17h 24m
Length of Day
15h 54m
Tomorrow will be 3m 16s shorter.
New Moon, 2% of the Moon is Illuminated
Today
New Moon
Aug 3
First Quarter
Aug 10
Full
Aug 17
Last Quarter
Aug 25
New

Yesterday's Extremes

Country Highs Country Lows

Community

WunderPhotos

Upload Photos

1,738,328 photos uploaded!

Nearby

Snow Depth

Not available.

Earthquake Activity

City Distance Mag. Time & Date
No recent earthquake activity has been reported nearby.
Minimum magnitude displayed is 2.5.

Coastal Water Temperatures

Place Temperature
No Stations Reporting

Nearby Weather Stations

Station Location Temp. Heat Index Dew Point Humidity Wind Precip. Elev Updated Type
Mecklenburg-Vorpommern, Groß Gievitz 73.8 °F 74 °F 68 °F 81% WNW  at  0.0 mph 0.00 in / hr 121 ft 3:29 PM CEST Normal
Mecklenburg-Vorpommern, Rosenow 75.2 °F 76 °F 67 °F 76% NNW  at  3.0 mph 0.00 in / hr 197 ft 3:27 PM CEST Normal

Show More Stations Show Fewer Stations